MSC Bettina — HPFG — position and weather

sailwx.info

Track history (hours):
 
Tides and Currents Weather Stations Pressure Air Temp Water Temp Dewpoint Dewpoint Depression Visibility Wind Speed Wind Dir Waves Ship Positions

MSC Bettina

Last reported at 2015-Feb-27 14:19 UTC. Time now 2015-Feb-27 15:22 UTC.
Position N 39°24' W 000°02'.

Length 366 m; draft 14 m.

Type: Ship (hazmat cat A). MMSI: 352361000.

Date/timePositionNaut miles runAvg speedWind from/ knotsBaromVisibWave heightAir tempDewpointWater temp
2015-Feb-27 14:19N 39°24' W 000°02'1216.2
2015-Feb-27 13:33N 39°26' W 000°18'1 1.2
2015-Feb-27 12:31N 39°26' W 000°20'0 0.0
2015-Feb-27 11:31N 39°26' W 000°20'0 0.0
2015-Feb-27 10:31N 39°26' W 000°20'0 0.0
2015-Feb-27 09:31N 39°26' W 000°20'0 0.0
2015-Feb-27 08:31N 39°26' W 000°20'0 0.0
2015-Feb-27 07:31N 39°26' W 000°20'0 0.0
2015-Feb-27 06:31N 39°26' W 000°20'0 0.0
2015-Feb-27 05:31N 39°26' W 000°20'0 0.0
2015-Feb-27 04:31N 39°26' W 000°20'0 0.0
2015-Feb-27 03:31N 39°26' W 000°20'0 0.0
2015-Feb-27 02:31N 39°26' W 000°20'0 0.0
2015-Feb-27 01:31N 39°26' W 000°20'0 0.0
2015-Feb-27 00:31N 39°26' W 000°20'0 0.0
2015-Feb-26 23:33N 39°26' W 000°20'0 0.0
2015-Feb-26 22:33N 39°26' W 000°20'0 0.0
2015-Feb-26 21:33N 39°26' W 000°20'0 0.0
2015-Feb-26 20:33N 39°26' W 000°20'0 0.0
2015-Feb-26 19:33N 39°26' W 000°20'0 0.0
2015-Feb-26 18:33N 39°26' W 000°20'0 0.0
2015-Feb-26 17:30N 39°26' W 000°20'0 0.0
2015-Feb-26 16:13N 39°26' W 000°20'0 0.0
2015-Feb-26 15:32N 39°26' W 000°20'0 0.0
2015-Feb-26 14:28N 39°26' W 000°20'0 0.0
2015-Feb-26 13:28N 39°26' W 000°20'0 0.0
2015-Feb-26 12:31N 39°26' W 000°20'0 0.0
2015-Feb-26 11:31N 39°26' W 000°20'0 0.0
2015-Feb-26 10:31N 39°26' W 000°20'0 0.0
2015-Feb-26 09:31N 39°26' W 000°20'0 0.0
2015-Feb-26 08:31N 39°26' W 000°20'0 0.0
2015-Feb-26 07:31N 39°26' W 000°20'0 0.0
2015-Feb-26 06:28N 39°26' W 000°20'0 0.0
2015-Feb-26 05:31N 39°26' W 000°20'0 0.0
2015-Feb-26 04:31N 39°26' W 000°20'0 0.0
2015-Feb-26 03:28N 39°26' W 000°20'1 1.1
2015-Feb-26 02:34N 39°26' W 000°18'1310.9
2015-Feb-26 01:24N 39°32' W 000°04'3519.1
2015-Feb-25 23:32N 39°57' E 000°28'2020.4
2015-Feb-25 22:33N 40°10' E 000°48'2120.6
2015-Feb-25 21:33N 40°24' E 001°08'2120.6
2015-Feb-25 20:33N 40°39' E 001°28'2120.8
2015-Feb-25 19:33N 40°55' E 001°45'2120.9
2015-Feb-25 18:33N 41°10' E 002°03'10 9.5
2015-Feb-25 17:33N 41°19' E 002°09'0 0.2
2015-Feb-25 15:32N 41°19' E 002°09'0 0.0
2015-Feb-25 14:29N 41°19' E 002°09'0 0.0
2015-Feb-25 13:23N 41°19' E 002°09'0 0.0
2015-Feb-25 12:26N 41°19' E 002°09'0 0.0
2015-Feb-25 11:32N 41°19' E 002°09'0 0.0
2015-Feb-25 10:32N 41°19' E 002°09'0 0.0
2015-Feb-25 09:32N 41°19' E 002°09'0 0.0
2015-Feb-25 08:29N 41°19' E 002°09'0 0.0
2015-Feb-25 07:32N 41°19' E 002°09'0 0.0
2015-Feb-25 06:23N 41°19' E 002°09'0 0.0
2015-Feb-25 05:29N 41°19' E 002°09'0 0.0
2015-Feb-25 04:17N 41°19' E 002°09'0 0.0
2015-Feb-25 03:11N 41°19' E 002°09'0 0.7
2015-Feb-25 02:33N 41°19' E 002°09'5 5.3
2015-Feb-25 01:32N 41°18' E 002°16'1 1.0
2015-Feb-25 00:32N 41°18' E 002°18'1 0.7
2015-Feb-24 23:33N 41°18' E 002°17'6 5.7
2015-Feb-24 22:33N 41°22' E 002°22'1313.1
2015-Feb-24 21:33N 41°29' E 002°37'5518.4
2015-Feb-24 18:33N 42°01' E 003°37'2020.4
2015-Feb-24 17:33N 42°16' E 003°56'2120.6
2015-Feb-24 16:33N 42°33' E 004°13'2220.3
2015-Feb-24 15:29N 42°49' E 004°33'1920.3
2015-Feb-24 14:33N 43°03' E 004°50'1818.1
2015-Feb-24 13:34N 43°19' E 004°59'9 8.5
2015-Feb-24 12:33N 43°25' E 004°50'0 0.1
2015-Feb-24 11:31N 43°25' E 004°50'0 0.0
2015-Feb-24 10:31N 43°25' E 004°50'0 0.0
2015-Feb-24 09:32N 43°25' E 004°50'0 0.0
2015-Feb-24 08:31N 43°25' E 004°50'0 0.0
2015-Feb-24 07:31N 43°25' E 004°50'0 0.0
2015-Feb-24 06:32N 43°25' E 004°50'0 0.0
2015-Feb-24 05:31N 43°25' E 004°50'0 0.0
2015-Feb-24 04:31N 43°25' E 004°50'0 0.0
2015-Feb-24 03:31N 43°25' E 004°50'0 0.0
2015-Feb-24 02:31N 43°25' E 004°50'0 0.0
2015-Feb-24 01:32N 43°25' E 004°50'0 0.0
2015-Feb-24 00:31N 43°25' E 004°50'0 0.0
2015-Feb-23 23:31N 43°25' E 004°50'0 0.0
2015-Feb-23 22:31N 43°25' E 004°50'0 0.0
2015-Feb-23 21:31N 43°25' E 004°50'0 0.0
2015-Feb-23 20:31N 43°25' E 004°50'0 0.0
2015-Feb-23 19:31N 43°25' E 004°50'0 0.0
2015-Feb-23 18:31N 43°25' E 004°50'0 0.0
2015-Feb-23 17:31N 43°25' E 004°50'0 0.0
2015-Feb-23 16:31N 43°25' E 004°50'0 0.0
2015-Feb-23 15:31N 43°25' E 004°50'0 0.0
2015-Feb-23 14:31N 43°25' E 004°50'0 0.0
2015-Feb-23 13:31N 43°25' E 004°50'0 0.0
2015-Feb-23 12:31N 43°25' E 004°50'0 0.0
2015-Feb-23 11:31N 43°25' E 004°50'0 0.0
2015-Feb-23 10:31N 43°25' E 004°50'0 0.0
2015-Feb-23 09:31N 43°25' E 004°50'0 0.0
2015-Feb-23 08:31N 43°25' E 004°50'0 0.0
2015-Feb-23 07:31N 43°25' E 004°50'0 0.0
2015-Feb-23 06:31N 43°25' E 004°50'0 0.0
2015-Feb-23 05:31N 43°25' E 004°50'0 0.0
2015-Feb-23 04:31N 43°25' E 004°50'0 0.0
2015-Feb-23 03:31N 43°25' E 004°50'0 0.0
2015-Feb-23 02:31N 43°25' E 004°50'0 0.0
2015-Feb-23 01:31N 43°25' E 004°50'0 0.0
2015-Feb-23 00:31N 43°25' E 004°50'0 0.0
2015-Feb-22 23:31N 43°25' E 004°50'0 0.0
2015-Feb-22 22:31N 43°25' E 004°50'0 0.0
2015-Feb-22 21:31N 43°25' E 004°50'0 0.2
2015-Feb-22 20:33N 43°25' E 004°50'4 3.7
2015-Feb-22 19:33N 43°24' E 004°55'10 9.6
2015-Feb-22 18:33N 43°15' E 005°01'8 8.2
2015-Feb-22 17:33N 43°07' E 005°04'2 2.4
2015-Feb-22 16:33N 43°09' E 005°03'4 4.4
2015-Feb-22 15:33N 43°05' E 005°03'1 0.6
2015-Feb-22 14:33N 43°05' E 005°02'3 3.1
2015-Feb-22 13:33N 43°08' E 005°04'2 2.4
2015-Feb-22 12:33N 43°10' E 005°03'4 3.7
2015-Feb-22 11:33N 43°07' E 005°00'2 2.5
2015-Feb-22 10:33N 43°09' E 005°02'4 4.0
2015-Feb-22 09:33N 43°09' E 005°07'5310.4
2015-Feb-22 04:29N 42°46' E 006°13'1112.2
2015-Feb-22 03:33N 42°47' E 006°28'1412.8
2015-Feb-22 02:29N 42°47' E 006°47'1314.0
2015-Feb-22 01:34N 42°56' E 006°60'1413.8
2015-Feb-22 00:32N 43°06' E 007°14'1813.5
2015-Feb-21 23:10N 43°18' E 007°32'4314.2
2015-Feb-21 20:07N 43°48' E 008°16'814.1
2015-Feb-21 19:33N 43°55' E 008°21'1514.9
2015-Feb-21 18:33N 44°07' E 008°33'1514.7
2015-Feb-21 17:33N 44°20' E 008°42'6 6.2
2015-Feb-21 16:33N 44°25' E 008°48'0 0.0
2015-Feb-21 15:33N 44°25' E 008°48'0 0.0
2015-Feb-21 14:30N 44°25' E 008°48'0 0.0
2015-Feb-21 13:33N 44°25' E 008°48'0 0.0
2015-Feb-21 12:33N 44°25' E 008°48'0 0.0
2015-Feb-21 11:33N 44°25' E 008°48'0 0.0
2015-Feb-21 10:33N 44°25' E 008°48'0 0.0
2015-Feb-21 09:27N 44°25' E 008°48'0 0.0
2015-Feb-21 08:30N 44°25' E 008°48'0 0.0
2015-Feb-21 07:30N 44°25' E 008°48'0 0.0
2015-Feb-21 06:24N 44°25' E 008°48'0 0.0
2015-Feb-21 05:30N 44°25' E 008°48'0 0.0
2015-Feb-21 04:33N 44°25' E 008°48'0 0.0
2015-Feb-21 03:30N 44°25' E 008°48'0 0.0
2015-Feb-21 02:33N 44°25' E 008°48'0 0.0
2015-Feb-21 01:33N 44°25' E 008°48'0 0.0
2015-Feb-21 00:33N 44°25' E 008°48'0 0.0
2015-Feb-20 23:33N 44°25' E 008°48'0 0.0
2015-Feb-20 22:30N 44°25' E 008°48'0 0.0
2015-Feb-20 21:33N 44°25' E 008°48'0 0.0
2015-Feb-20 20:33N 44°25' E 008°48'0 0.0
2015-Feb-20 19:33N 44°25' E 008°48'0 0.0
2015-Feb-20 18:33N 44°25' E 008°48'0 0.0
2015-Feb-20 17:33N 44°25' E 008°48'0 0.0
2015-Feb-20 16:33N 44°25' E 008°48'0 0.0
2015-Feb-20 15:33N 44°25' E 008°48'0 0.0
2015-Feb-20 14:33N 44°25' E 008°48'1 1.5
2015-Feb-20 13:33N 44°25' E 008°45'4 3.9
2015-Feb-20 12:33N 44°22' E 008°42'4 4.2
2015-Feb-20 11:33N 44°19' E 008°46'7 7.2
2015-Feb-20 10:33N 44°16' E 008°55'7 7.0
2015-Feb-20 09:33N 44°12' E 009°03'7 7.1
2015-Feb-20 08:33N 44°08' E 009°11'1313.2
2015-Feb-20 07:33N 44°01' E 009°27'1817.6
2015-Feb-20 06:33N 43°58' E 009°51'8 8.1
2015-Feb-20 05:33N 44°06' E 009°51'0 0.0
2015-Feb-20 04:31N 44°06' E 009°51'0 0.0
2015-Feb-20 03:31N 44°06' E 009°51'0 0.0
2015-Feb-20 02:31N 44°06' E 009°51'0 0.0
2015-Feb-20 01:31N 44°06' E 009°51'0 0.0
2015-Feb-20 00:28N 44°06' E 009°51'0 0.0
2015-Feb-19 23:31N 44°06' E 009°51'0 0.0
2015-Feb-19 22:31N 44°06' E 009°51'0 0.0
2015-Feb-19 21:31N 44°06' E 009°51'0 0.0
2015-Feb-19 20:31N 44°06' E 009°51'0 0.0
2015-Feb-19 19:31N 44°06' E 009°51'0 0.0
2015-Feb-19 18:33N 44°06' E 009°51'0 0.0
2015-Feb-19 17:33N 44°06' E 009°51'0 0.0
2015-Feb-19 16:33N 44°06' E 009°51'0 0.0
2015-Feb-19 15:33N 44°06' E 009°51'0 0.0
2015-Feb-19 14:33N 44°06' E 009°51'0 0.0
2015-Feb-19 13:33N 44°06' E 009°51'0 0.0
2015-Feb-19 12:33N 44°06' E 009°51'0 0.0
2015-Feb-19 11:33N 44°06' E 009°51'0 0.0
2015-Feb-19 10:33N 44°06' E 009°51'0 0.0
2015-Feb-19 09:30N 44°06' E 009°51'0 0.0
2015-Feb-19 08:33N 44°06' E 009°51'0 0.0
2015-Feb-19 07:33N 44°06' E 009°51'0 0.0
2015-Feb-19 06:33N 44°06' E 009°51'0 0.2
2015-Feb-19 05:33N 44°06' E 009°51'6 6.5
2015-Feb-19 04:33N 44°00' E 009°55'1111.3
2015-Feb-19 03:34N 43°50' E 009°51'1616.3
2015-Feb-19 02:34N 43°34' E 009°46'1616.4
2015-Feb-19 01:34N 43°18' E 009°41'1616.1
2015-Feb-19 00:33N 43°02' E 009°38'2117.2
2015-Feb-18 23:19N 42°42' E 009°47'18820.5
2015-Feb-18 14:09N 40°31' E 012°48'  
Track history (hours):
 
Tides and Currents Weather Stations Pressure Air Temp Water Temp Dewpoint Dewpoint Depression Visibility Wind Speed Wind Dir Waves Ship Positions

MSC Bettina

Last reported at 2015-Feb-27 14:19 UTC. Time now 2015-Feb-27 15:22 UTC.
Position N 39°24' W 000°02'.

Length 366 m; draft 14 m.

Type: Ship (hazmat cat A). MMSI: 352361000.

Date/timePositionNaut miles runAvg speedWind from/ knotsBaromVisibWave heightAir tempDewpointWater temp
2015-Feb-27 14:19N 39°24' W 000°02'1216.2
2015-Feb-27 13:33N 39°26' W 000°18'1 1.2
2015-Feb-27 12:31N 39°26' W 000°20'0 0.0
2015-Feb-27 11:31N 39°26' W 000°20'0 0.0
2015-Feb-27 10:31N 39°26' W 000°20'0 0.0
2015-Feb-27 09:31N 39°26' W 000°20'0 0.0
2015-Feb-27 08:31N 39°26' W 000°20'0 0.0
2015-Feb-27 07:31N 39°26' W 000°20'0 0.0
2015-Feb-27 06:31N 39°26' W 000°20'0 0.0
2015-Feb-27 05:31N 39°26' W 000°20'0 0.0
2015-Feb-27 04:31N 39°26' W 000°20'0 0.0
2015-Feb-27 03:31N 39°26' W 000°20'0 0.0
2015-Feb-27 02:31N 39°26' W 000°20'0 0.0
2015-Feb-27 01:31N 39°26' W 000°20'0 0.0
2015-Feb-27 00:31N 39°26' W 000°20'0 0.0
2015-Feb-26 23:33N 39°26' W 000°20'0 0.0
2015-Feb-26 22:33N 39°26' W 000°20'0 0.0
2015-Feb-26 21:33N 39°26' W 000°20'0 0.0
2015-Feb-26 20:33N 39°26' W 000°20'0 0.0
2015-Feb-26 19:33N 39°26' W 000°20'0 0.0
2015-Feb-26 18:33N 39°26' W 000°20'0 0.0
2015-Feb-26 17:30N 39°26' W 000°20'0 0.0
2015-Feb-26 16:13N 39°26' W 000°20'0 0.0
2015-Feb-26 15:32N 39°26' W 000°20'0 0.0
2015-Feb-26 14:28N 39°26' W 000°20'0 0.0
2015-Feb-26 13:28N 39°26' W 000°20'0 0.0
2015-Feb-26 12:31N 39°26' W 000°20'0 0.0
2015-Feb-26 11:31N 39°26' W 000°20'0 0.0
2015-Feb-26 10:31N 39°26' W 000°20'0 0.0
2015-Feb-26 09:31N 39°26' W 000°20'0 0.0
2015-Feb-26 08:31N 39°26' W 000°20'0 0.0
2015-Feb-26 07:31N 39°26' W 000°20'0 0.0
2015-Feb-26 06:28N 39°26' W 000°20'0 0.0
2015-Feb-26 05:31N 39°26' W 000°20'0 0.0
2015-Feb-26 04:31N 39°26' W 000°20'0 0.0
2015-Feb-26 03:28N 39°26' W 000°20'1 1.1
2015-Feb-26 02:34N 39°26' W 000°18'1310.9
2015-Feb-26 01:24N 39°32' W 000°04'3519.1
2015-Feb-25 23:32N 39°57' E 000°28'2020.4
2015-Feb-25 22:33N 40°10' E 000°48'2120.6
2015-Feb-25 21:33N 40°24' E 001°08'2120.6
2015-Feb-25 20:33N 40°39' E 001°28'2120.8
2015-Feb-25 19:33N 40°55' E 001°45'2120.9
2015-Feb-25 18:33N 41°10' E 002°03'10 9.5
2015-Feb-25 17:33N 41°19' E 002°09'0 0.2
2015-Feb-25 15:32N 41°19' E 002°09'0 0.0
2015-Feb-25 14:29N 41°19' E 002°09'0 0.0
2015-Feb-25 13:23N 41°19' E 002°09'0 0.0
2015-Feb-25 12:26N 41°19' E 002°09'0 0.0
2015-Feb-25 11:32N 41°19' E 002°09'0 0.0
2015-Feb-25 10:32N 41°19' E 002°09'0 0.0
2015-Feb-25 09:32N 41°19' E 002°09'0 0.0
2015-Feb-25 08:29N 41°19' E 002°09'0 0.0
2015-Feb-25 07:32N 41°19' E 002°09'0 0.0
2015-Feb-25 06:23N 41°19' E 002°09'0 0.0
2015-Feb-25 05:29N 41°19' E 002°09'0 0.0
2015-Feb-25 04:17N 41°19' E 002°09'0 0.0
2015-Feb-25 03:11N 41°19' E 002°09'0 0.7
2015-Feb-25 02:33N 41°19' E 002°09'5 5.3
2015-Feb-25 01:32N 41°18' E 002°16'1 1.0
2015-Feb-25 00:32N 41°18' E 002°18'1 0.7
2015-Feb-24 23:33N 41°18' E 002°17'6 5.7
2015-Feb-24 22:33N 41°22' E 002°22'1313.1
2015-Feb-24 21:33N 41°29' E 002°37'5518.4
2015-Feb-24 18:33N 42°01' E 003°37'2020.4
2015-Feb-24 17:33N 42°16' E 003°56'2120.6
2015-Feb-24 16:33N 42°33' E 004°13'2220.3
2015-Feb-24 15:29N 42°49' E 004°33'1920.3
2015-Feb-24 14:33N 43°03' E 004°50'1818.1
2015-Feb-24 13:34N 43°19' E 004°59'9 8.5
2015-Feb-24 12:33N 43°25' E 004°50'0 0.1
2015-Feb-24 11:31N 43°25' E 004°50'0 0.0
2015-Feb-24 10:31N 43°25' E 004°50'0 0.0
2015-Feb-24 09:32N 43°25' E 004°50'0 0.0
2015-Feb-24 08:31N 43°25' E 004°50'0 0.0
2015-Feb-24 07:31N 43°25' E 004°50'0 0.0
2015-Feb-24 06:32N 43°25' E 004°50'0 0.0
2015-Feb-24 05:31N 43°25' E 004°50'0 0.0
2015-Feb-24 04:31N 43°25' E 004°50'0 0.0
2015-Feb-24 03:31N 43°25' E 004°50'0 0.0
2015-Feb-24 02:31N 43°25' E 004°50'0 0.0
2015-Feb-24 01:32N 43°25' E 004°50'0 0.0
2015-Feb-24 00:31N 43°25' E 004°50'0 0.0
2015-Feb-23 23:31N 43°25' E 004°50'0 0.0
2015-Feb-23 22:31N 43°25' E 004°50'0 0.0
2015-Feb-23 21:31N 43°25' E 004°50'0 0.0
2015-Feb-23 20:31N 43°25' E 004°50'0 0.0
2015-Feb-23 19:31N 43°25' E 004°50'0 0.0
2015-Feb-23 18:31N 43°25' E 004°50'0 0.0
2015-Feb-23 17:31N 43°25' E 004°50'0 0.0
2015-Feb-23 16:31N 43°25' E 004°50'0 0.0
2015-Feb-23 15:31N 43°25' E 004°50'0 0.0
2015-Feb-23 14:31N 43°25' E 004°50'0 0.0
2015-Feb-23 13:31N 43°25' E 004°50'0 0.0
2015-Feb-23 12:31N 43°25' E 004°50'0 0.0
2015-Feb-23 11:31N 43°25' E 004°50'0 0.0
2015-Feb-23 10:31N 43°25' E 004°50'0 0.0
2015-Feb-23 09:31N 43°25' E 004°50'0 0.0
2015-Feb-23 08:31N 43°25' E 004°50'0 0.0
2015-Feb-23 07:31N 43°25' E 004°50'0 0.0
2015-Feb-23 06:31N 43°25' E 004°50'0 0.0
2015-Feb-23 05:31N 43°25' E 004°50'0 0.0
2015-Feb-23 04:31N 43°25' E 004°50'0 0.0
2015-Feb-23 03:31N 43°25' E 004°50'0 0.0
2015-Feb-23 02:31N 43°25' E 004°50'0 0.0
2015-Feb-23 01:31N 43°25' E 004°50'0 0.0
2015-Feb-23 00:31N 43°25' E 004°50'0 0.0
2015-Feb-22 23:31N 43°25' E 004°50'0 0.0
2015-Feb-22 22:31N 43°25' E 004°50'0 0.0
2015-Feb-22 21:31N 43°25' E 004°50'0 0.2
2015-Feb-22 20:33N 43°25' E 004°50'4 3.7
2015-Feb-22 19:33N 43°24' E 004°55'10 9.6
2015-Feb-22 18:33N 43°15' E 005°01'8 8.2
2015-Feb-22 17:33N 43°07' E 005°04'2 2.4
2015-Feb-22 16:33N 43°09' E 005°03'4 4.4
2015-Feb-22 15:33N 43°05' E 005°03'1 0.6
2015-Feb-22 14:33N 43°05' E 005°02'3 3.1
2015-Feb-22 13:33N 43°08' E 005°04'2 2.4
2015-Feb-22 12:33N 43°10' E 005°03'4 3.7
2015-Feb-22 11:33N 43°07' E 005°00'2 2.5
2015-Feb-22 10:33N 43°09' E 005°02'4 4.0
2015-Feb-22 09:33N 43°09' E 005°07'5310.4
2015-Feb-22 04:29N 42°46' E 006°13'1112.2
2015-Feb-22 03:33N 42°47' E 006°28'1412.8
2015-Feb-22 02:29N 42°47' E 006°47'1314.0
2015-Feb-22 01:34N 42°56' E 006°60'1413.8
2015-Feb-22 00:32N 43°06' E 007°14'1813.5
2015-Feb-21 23:10N 43°18' E 007°32'4314.2
2015-Feb-21 20:07N 43°48' E 008°16'814.1
2015-Feb-21 19:33N 43°55' E 008°21'1514.9
2015-Feb-21 18:33N 44°07' E 008°33'1514.7
2015-Feb-21 17:33N 44°20' E 008°42'6 6.2
2015-Feb-21 16:33N 44°25' E 008°48'0 0.0
2015-Feb-21 15:33N 44°25' E 008°48'0 0.0
2015-Feb-21 14:30N 44°25' E 008°48'0 0.0
2015-Feb-21 13:33N 44°25' E 008°48'0 0.0
2015-Feb-21 12:33N 44°25' E 008°48'0 0.0
2015-Feb-21 11:33N 44°25' E 008°48'0 0.0
2015-Feb-21 10:33N 44°25' E 008°48'0 0.0
2015-Feb-21 09:27N 44°25' E 008°48'0 0.0
2015-Feb-21 08:30N 44°25' E 008°48'0 0.0
2015-Feb-21 07:30N 44°25' E 008°48'0 0.0
2015-Feb-21 06:24N 44°25' E 008°48'0 0.0
2015-Feb-21 05:30N 44°25' E 008°48'0 0.0
2015-Feb-21 04:33N 44°25' E 008°48'0 0.0
2015-Feb-21 03:30N 44°25' E 008°48'0 0.0
2015-Feb-21 02:33N 44°25' E 008°48'0 0.0
2015-Feb-21 01:33N 44°25' E 008°48'0 0.0
2015-Feb-21 00:33N 44°25' E 008°48'0 0.0
2015-Feb-20 23:33N 44°25' E 008°48'0 0.0
2015-Feb-20 22:30N 44°25' E 008°48'0 0.0
2015-Feb-20 21:33N 44°25' E 008°48'0 0.0
2015-Feb-20 20:33N 44°25' E 008°48'0 0.0
2015-Feb-20 19:33N 44°25' E 008°48'0 0.0
2015-Feb-20 18:33N 44°25' E 008°48'0 0.0
2015-Feb-20 17:33N 44°25' E 008°48'0 0.0
2015-Feb-20 16:33N 44°25' E 008°48'0 0.0
2015-Feb-20 15:33N 44°25' E 008°48'0 0.0
2015-Feb-20 14:33N 44°25' E 008°48'1 1.5
2015-Feb-20 13:33N 44°25' E 008°45'4 3.9
2015-Feb-20 12:33N 44°22' E 008°42'4 4.2
2015-Feb-20 11:33N 44°19' E 008°46'7 7.2
2015-Feb-20 10:33N 44°16' E 008°55'7 7.0
2015-Feb-20 09:33N 44°12' E 009°03'7 7.1
2015-Feb-20 08:33N 44°08' E 009°11'1313.2
2015-Feb-20 07:33N 44°01' E 009°27'1817.6
2015-Feb-20 06:33N 43°58' E 009°51'8 8.1
2015-Feb-20 05:33N 44°06' E 009°51'0 0.0
2015-Feb-20 04:31N 44°06' E 009°51'0 0.0
2015-Feb-20 03:31N 44°06' E 009°51'0 0.0
2015-Feb-20 02:31N 44°06' E 009°51'0 0.0
2015-Feb-20 01:31N 44°06' E 009°51'0 0.0
2015-Feb-20 00:28N 44°06' E 009°51'0 0.0
2015-Feb-19 23:31N 44°06' E 009°51'0 0.0
2015-Feb-19 22:31N 44°06' E 009°51'0 0.0
2015-Feb-19 21:31N 44°06' E 009°51'0 0.0
2015-Feb-19 20:31N 44°06' E 009°51'0 0.0
2015-Feb-19 19:31N 44°06' E 009°51'0 0.0
2015-Feb-19 18:33N 44°06' E 009°51'0 0.0
2015-Feb-19 17:33N 44°06' E 009°51'0 0.0
2015-Feb-19 16:33N 44°06' E 009°51'0 0.0
2015-Feb-19 15:33N 44°06' E 009°51'0 0.0
2015-Feb-19 14:33N 44°06' E 009°51'0 0.0
2015-Feb-19 13:33N 44°06' E 009°51'0 0.0
2015-Feb-19 12:33N 44°06' E 009°51'0 0.0
2015-Feb-19 11:33N 44°06' E 009°51'0 0.0
2015-Feb-19 10:33N 44°06' E 009°51'0 0.0
2015-Feb-19 09:30N 44°06' E 009°51'0 0.0
2015-Feb-19 08:33N 44°06' E 009°51'0 0.0
2015-Feb-19 07:33N 44°06' E 009°51'0 0.0
2015-Feb-19 06:33N 44°06' E 009°51'0 0.2
2015-Feb-19 05:33N 44°06' E 009°51'6 6.5
2015-Feb-19 04:33N 44°00' E 009°55'1111.3
2015-Feb-19 03:34N 43°50' E 009°51'1616.3
2015-Feb-19 02:34N 43°34' E 009°46'1616.4
2015-Feb-19 01:34N 43°18' E 009°41'1616.1
2015-Feb-19 00:33N 43°02' E 009°38'2117.2
2015-Feb-18 23:19N 42°42' E 009°47'18820.5
2015-Feb-18 14:09N 40°31' E 012°48'  

Dump ship's entire track history